createdAt,value
2023-02-06T00:00:15.891Z,39.9
2023-02-06T00:05:15.941Z,40.0
2023-02-06T00:10:15.780Z,39.9
2023-02-06T00:15:15.926Z,39.9
2023-02-06T00:20:15.839Z,39.8
2023-02-06T00:25:15.952Z,39.8
2023-02-06T00:30:15.914Z,39.7
2023-02-06T00:35:15.941Z,39.6
2023-02-06T00:40:15.835Z,39.4
2023-02-06T00:45:15.980Z,39.3
2023-02-06T00:50:16.112Z,39.4
2023-02-06T00:55:15.909Z,39.3
2023-02-06T01:00:15.982Z,39.2
2023-02-06T01:05:16.096Z,39.1
2023-02-06T01:10:16.103Z,39.0
2023-02-06T01:15:17.172Z,38.9
2023-02-06T01:20:17.011Z,38.8
2023-02-06T01:25:17.036Z,38.7
2023-02-06T01:30:17.230Z,38.6
2023-02-06T01:35:16.988Z,38.6
2023-02-06T01:40:17.148Z,38.5
2023-02-06T01:45:17.097Z,38.4
2023-02-06T01:50:17.201Z,38.2
2023-02-06T01:55:17.134Z,38.2
2023-02-06T02:00:17.165Z,38.2
2023-02-06T02:05:17.400Z,38.1
2023-02-06T02:10:17.098Z,38.0
2023-02-06T02:15:17.076Z,38.0
2023-02-06T02:20:17.086Z,38.0
2023-02-06T02:25:17.178Z,38.0
2023-02-06T02:30:17.403Z,37.9
2023-02-06T02:35:17.318Z,37.8
2023-02-06T02:40:17.301Z,37.8
2023-02-06T02:45:17.740Z,37.8
2023-02-06T02:50:17.167Z,37.8
2023-02-06T02:55:17.252Z,37.8
2023-02-06T03:00:17.302Z,37.9
2023-02-06T03:05:17.150Z,37.8
2023-02-06T03:10:17.387Z,37.8
2023-02-06T03:15:17.198Z,37.7
2023-02-06T03:20:17.325Z,37.6
2023-02-06T03:25:17.348Z,37.6
2023-02-06T03:30:17.465Z,37.5
2023-02-06T03:35:17.304Z,37.5
2023-02-06T03:40:17.324Z,37.4
2023-02-06T03:45:17.297Z,37.3
2023-02-06T03:50:17.253Z,37.4
2023-02-06T03:55:17.339Z,37.5
2023-02-06T04:00:17.349Z,37.6
2023-02-06T04:05:17.429Z,37.6
2023-02-06T04:10:17.379Z,37.7
2023-02-06T04:15:17.424Z,37.8
2023-02-06T04:20:15.306Z,38.1
2023-02-06T04:25:15.449Z,38.2
2023-02-06T04:30:15.362Z,38.2
2023-02-06T04:35:15.553Z,38.1
2023-02-06T04:40:15.540Z,38.2
2023-02-06T04:45:15.583Z,38.1
2023-02-06T04:50:15.557Z,38.0
2023-02-06T04:55:15.472Z,37.9
2023-02-06T05:00:16.699Z,37.8
2023-02-06T05:05:16.690Z,37.9
2023-02-06T05:10:16.565Z,37.8
2023-02-06T05:15:16.530Z,37.8
2023-02-06T05:20:16.592Z,37.7
2023-02-06T05:25:16.558Z,37.7
2023-02-06T05:30:16.668Z,37.7
2023-02-06T05:35:16.694Z,37.7
2023-02-06T05:40:16.647Z,37.7
2023-02-06T05:45:16.611Z,37.7
2023-02-06T05:50:16.727Z,37.8
2023-02-06T05:55:16.538Z,37.9
2023-02-06T06:00:16.673Z,38.0
2023-02-06T06:05:16.636Z,38.1
2023-02-06T06:10:16.618Z,38.2
2023-02-06T06:15:16.699Z,38.4
2023-02-06T06:20:16.704Z,38.4
2023-02-06T06:25:16.660Z,38.5
2023-02-06T06:30:16.619Z,38.4
2023-02-06T06:35:16.688Z,38.4
2023-02-06T06:40:16.754Z,38.5
2023-02-06T06:45:16.700Z,38.6
2023-02-06T06:50:16.697Z,38.6
2023-02-06T06:55:16.798Z,38.6
2023-02-06T07:00:16.777Z,38.6
2023-02-06T07:05:16.777Z,38.5
2023-02-06T07:10:17.062Z,38.5
2023-02-06T07:15:16.774Z,38.4
2023-02-06T07:20:16.895Z,38.2
2023-02-06T07:25:16.840Z,38.2
2023-02-06T07:30:16.826Z,38.1
2023-02-06T07:35:16.891Z,38.0
2023-02-06T07:40:17.022Z,37.9
2023-02-06T07:45:16.937Z,37.8
2023-02-06T07:50:16.898Z,37.7
2023-02-06T07:55:16.765Z,37.6
2023-02-06T08:00:16.927Z,37.7
2023-02-06T08:05:16.928Z,37.6
2023-02-06T08:10:16.925Z,37.5
2023-02-06T08:15:16.993Z,37.4
2023-02-06T08:20:17.074Z,37.5
2023-02-06T08:25:16.932Z,37.5
2023-02-06T08:30:16.937Z,37.5
2023-02-06T08:35:17.201Z,37.5
2023-02-06T08:40:16.975Z,37.6
2023-02-06T08:45:17.099Z,37.8
2023-02-06T08:50:17.039Z,37.8
2023-02-06T08:55:17.015Z,37.8
2023-02-06T09:00:16.997Z,37.8
2023-02-06T09:05:17.013Z,37.7
2023-02-06T09:10:27.205Z,37.6
2023-02-06T09:15:17.012Z,37.5
2023-02-06T09:20:17.173Z,37.4
2023-02-06T09:25:17.001Z,37.3
2023-02-06T09:30:17.076Z,37.3
2023-02-06T09:35:17.081Z,37.1
2023-02-06T09:40:17.156Z,37.0
2023-02-06T09:45:17.285Z,36.7
2023-02-06T09:50:17.209Z,36.8
2023-02-06T09:55:17.070Z,36.8
2023-02-06T10:00:17.277Z,36.4
2023-02-06T10:05:17.208Z,36.2
2023-02-06T10:10:17.141Z,36.2
2023-02-06T10:15:17.149Z,36.3
2023-02-06T10:20:17.308Z,36.4
2023-02-06T10:25:17.275Z,36.3
2023-02-06T10:30:17.171Z,36.1
2023-02-06T10:35:17.229Z,35.8
2023-02-06T10:40:17.348Z,35.8
2023-02-06T10:45:22.063Z,35.6
2023-02-06T10:50:17.278Z,35.5
2023-02-06T10:55:17.343Z,35.4
2023-02-06T11:00:17.310Z,34.9
2023-02-06T11:05:17.257Z,34.8
2023-02-06T11:10:17.273Z,34.8
2023-02-06T11:15:17.250Z,34.8
2023-02-06T11:20:17.304Z,34.8
2023-02-06T11:25:17.351Z,34.8
2023-02-06T11:30:17.503Z,34.8
2023-02-06T11:35:17.415Z,34.8
2023-02-06T11:40:17.356Z,34.8
2023-02-06T11:45:15.371Z,34.8
2023-02-06T11:50:15.386Z,34.9
2023-02-06T11:55:15.518Z,35.1
2023-02-06T12:00:15.391Z,35.2
2023-02-06T12:05:15.542Z,35.3
2023-02-06T12:10:16.905Z,35.4
2023-02-06T12:15:39.805Z,35.5
2023-02-06T12:20:15.596Z,35.6
2023-02-06T12:25:15.420Z,35.4
2023-02-06T12:30:15.507Z,35.3
2023-02-06T12:35:15.762Z,35.2
2023-02-06T12:40:15.509Z,35.1
2023-02-06T12:45:15.565Z,35.1
2023-02-06T12:50:15.669Z,35.3
2023-02-06T12:55:15.625Z,35.4
2023-02-06T13:00:15.636Z,35.4
2023-02-06T13:05:15.598Z,35.6
2023-02-06T13:10:15.731Z,35.8
2023-02-06T13:15:15.703Z,36.1
2023-02-06T13:20:15.580Z,36.4
2023-02-06T13:25:15.618Z,36.6
2023-02-06T13:30:15.608Z,36.9
2023-02-06T13:35:15.644Z,36.9
2023-02-06T13:40:15.592Z,37.0
2023-02-06T13:45:15.684Z,37.0
2023-02-06T13:50:15.780Z,37.0
2023-02-06T13:55:15.564Z,37.0
2023-02-06T14:00:15.754Z,37.1
2023-02-06T14:05:15.821Z,37.2
2023-02-06T14:10:15.771Z,37.4
2023-02-06T14:15:15.722Z,37.7
2023-02-06T14:20:15.730Z,37.8
2023-02-06T14:25:15.946Z,37.9
2023-02-06T14:30:15.741Z,38.1
2023-02-06T14:35:15.882Z,38.3
2023-02-06T14:40:15.740Z,38.6
2023-02-06T14:45:15.775Z,38.8
2023-02-06T14:50:15.856Z,39.1
2023-02-06T14:55:15.791Z,39.5
2023-02-06T15:00:16.018Z,40.1
2023-02-06T15:05:15.943Z,40.7
2023-02-06T15:10:15.849Z,41.0
2023-02-06T15:15:16.042Z,41.3
2023-02-06T15:20:16.184Z,41.6
2023-02-06T15:25:15.842Z,42.0
2023-02-06T15:30:16.019Z,42.2
2023-02-06T15:35:15.953Z,42.2
2023-02-06T15:40:15.908Z,42.5
2023-02-06T15:45:15.936Z,42.8
2023-02-06T15:50:15.941Z,42.9
2023-02-06T15:55:16.011Z,43.0
2023-02-06T16:00:15.977Z,42.9
2023-02-06T16:05:16.029Z,42.8
2023-02-06T16:10:16.083Z,42.9
2023-02-06T16:15:16.064Z,42.9
2023-02-06T16:20:15.988Z,42.9
2023-02-06T16:25:16.056Z,42.9
2023-02-06T16:30:16.032Z,42.3
2023-02-06T16:35:16.025Z,41.6
2023-02-06T16:40:16.032Z,41.5
2023-02-06T16:45:16.150Z,41.6
2023-02-06T16:50:16.024Z,41.6
2023-02-06T16:55:16.062Z,41.6
2023-02-06T17:00:16.079Z,41.8
2023-02-06T17:05:16.068Z,41.9
2023-02-06T17:10:16.050Z,42.0
2023-02-06T17:15:16.080Z,42.1
2023-02-06T17:20:16.125Z,42.2
2023-02-06T17:25:16.171Z,42.3
2023-02-06T17:30:16.335Z,42.3
2023-02-06T17:35:16.231Z,42.6
2023-02-06T17:40:16.304Z,42.6
2023-02-06T17:45:16.259Z,42.5
2023-02-06T17:50:16.186Z,42.4
2023-02-06T17:55:16.107Z,42.4
2023-02-06T18:00:16.364Z,42.6
2023-02-06T18:05:16.205Z,42.7
2023-02-06T18:10:16.819Z,42.4
2023-02-06T18:15:16.231Z,42.4
2023-02-06T18:20:16.317Z,42.3
2023-02-06T18:25:16.325Z,42.2
2023-02-06T18:30:16.316Z,42.3
2023-02-06T18:35:16.260Z,42.4
2023-02-06T18:40:16.252Z,42.4
2023-02-06T18:45:16.310Z,42.5
2023-02-06T18:50:16.481Z,42.4
2023-02-06T18:55:16.913Z,42.5
2023-02-06T19:00:16.403Z,42.6
2023-02-06T19:05:16.383Z,42.7
2023-02-06T19:10:16.554Z,42.7
2023-02-06T19:15:16.430Z,42.8
2023-02-06T19:20:16.359Z,42.8
2023-02-06T19:25:16.506Z,42.9
2023-02-06T19:30:16.517Z,43.0
2023-02-06T19:35:16.444Z,43.0
2023-02-06T19:40:16.432Z,43.1
2023-02-06T19:45:16.481Z,43.2
2023-02-06T19:50:16.588Z,43.2
2023-02-06T19:55:16.528Z,43.2
2023-02-06T20:00:16.468Z,43.2
2023-02-06T20:05:16.703Z,43.0
2023-02-06T20:10:16.457Z,42.8
2023-02-06T20:15:16.450Z,42.9
2023-02-06T20:20:16.520Z,42.9
2023-02-06T20:25:16.580Z,42.9
2023-02-06T20:30:16.554Z,42.8
2023-02-06T20:35:16.601Z,42.9
2023-02-06T20:40:16.775Z,42.8
2023-02-06T20:45:16.624Z,42.8
2023-02-06T20:50:16.557Z,42.8
2023-02-06T20:55:16.561Z,42.7
2023-02-06T21:00:16.664Z,42.6
2023-02-06T21:05:16.742Z,42.7
2023-02-06T21:10:16.666Z,42.6
2023-02-06T21:15:16.655Z,42.5
2023-02-06T21:20:16.844Z,42.6
2023-02-06T21:25:16.638Z,42.7
2023-02-06T21:30:16.786Z,42.6
2023-02-06T21:35:16.836Z,42.5
2023-02-06T21:40:16.685Z,42.5
2023-02-06T21:45:16.760Z,42.4
2023-02-06T21:50:16.801Z,42.3
2023-02-06T21:55:16.885Z,42.2
2023-02-06T22:00:16.965Z,42.1
2023-02-06T22:05:16.989Z,42.0
2023-02-06T22:10:16.727Z,42.0
2023-02-06T22:15:16.795Z,41.9
2023-02-06T22:20:16.799Z,41.9
2023-02-06T22:25:16.894Z,41.9
2023-02-06T22:30:17.083Z,41.8
2023-02-06T22:35:16.854Z,41.8
2023-02-06T22:40:16.872Z,41.7
2023-02-06T22:45:16.852Z,41.7
2023-02-06T22:50:16.996Z,41.7
2023-02-06T22:55:16.921Z,41.6
2023-02-06T23:00:17.164Z,41.6
2023-02-06T23:05:16.934Z,41.6
2023-02-06T23:10:16.917Z,41.5
2023-02-06T23:15:16.916Z,41.5
2023-02-06T23:20:16.988Z,41.5
2023-02-06T23:25:16.933Z,41.3
2023-02-06T23:30:17.012Z,41.3
2023-02-06T23:35:17.006Z,41.1
2023-02-06T23:40:17.059Z,41.0
2023-02-06T23:45:17.004Z,40.9
2023-02-06T23:50:17.046Z,40.7
2023-02-06T23:55:16.953Z,40.5
